createdAt,value
2023-04-28T00:01:12.365Z,13.92
2023-04-28T00:03:39.004Z,13.93
2023-04-28T00:06:06.020Z,13.96
2023-04-28T00:08:32.887Z,13.92
2023-04-28T00:10:59.535Z,13.91
2023-04-28T00:13:26.482Z,13.89
2023-04-28T00:15:53.377Z,13.91
2023-04-28T00:18:20.840Z,13.83
2023-04-28T00:20:47.394Z,13.81
2023-04-28T00:23:13.827Z,13.81
2023-04-28T00:25:40.192Z,13.89
2023-04-28T00:28:06.656Z,13.84
2023-04-28T00:30:33.007Z,13.87
2023-04-28T00:32:59.390Z,13.85
2023-04-28T00:35:25.946Z,13.85
2023-04-28T00:37:52.319Z,13.82
2023-04-28T00:40:18.880Z,13.80
2023-04-28T00:42:45.314Z,13.77
2023-04-28T00:45:11.897Z,13.69
2023-04-28T00:47:38.262Z,13.69
2023-04-28T00:50:08.179Z,13.71
2023-04-28T00:52:34.635Z,13.66
2023-04-28T00:55:01.051Z,13.65
2023-04-28T00:57:27.491Z,13.67
2023-04-28T00:59:53.945Z,13.68
2023-04-28T01:02:20.473Z,13.67
2023-04-28T01:04:47.402Z,13.70
2023-04-28T01:07:14.388Z,13.74
2023-04-28T01:09:40.868Z,13.73
2023-04-28T01:12:08.464Z,13.73
2023-04-28T01:14:35.206Z,13.79
2023-04-28T01:17:01.916Z,13.75
2023-04-28T01:19:29.726Z,13.73
2023-04-28T01:21:56.071Z,13.67
2023-04-28T01:24:22.667Z,13.62
2023-04-28T01:26:48.976Z,13.58
2023-04-28T01:29:15.277Z,13.51
2023-04-28T01:31:41.845Z,13.46
2023-04-28T01:34:08.366Z,13.44
2023-04-28T01:36:37.283Z,13.37
2023-04-28T01:39:05.421Z,13.32
2023-04-28T01:41:34.303Z,13.28
2023-04-28T01:44:00.795Z,13.26
2023-04-28T01:46:27.678Z,13.18
2023-04-28T01:48:54.115Z,13.18
2023-04-28T01:51:20.731Z,13.06
2023-04-28T01:53:47.144Z,12.98
2023-04-28T01:56:13.477Z,12.92
2023-04-28T01:58:39.877Z,12.89
2023-04-28T02:01:06.696Z,12.86
2023-04-28T02:03:33.368Z,12.89
2023-04-28T02:05:59.848Z,12.87
2023-04-28T02:08:26.358Z,12.86
2023-04-28T02:10:52.665Z,12.85
2023-04-28T02:13:19.041Z,12.78
2023-04-28T02:15:45.510Z,12.76
2023-04-28T02:18:11.958Z,12.81
2023-04-28T02:20:38.559Z,12.79
2023-04-28T02:23:04.908Z,12.71
2023-04-28T02:25:31.437Z,12.65
2023-04-28T02:27:57.807Z,12.64
2023-04-28T02:30:24.149Z,12.62
2023-04-28T02:32:50.752Z,12.63
2023-04-28T02:35:17.241Z,12.64
2023-04-28T02:37:43.573Z,12.59
2023-04-28T02:40:10.571Z,12.60
2023-04-28T02:42:37.006Z,12.60
2023-04-28T02:45:03.603Z,12.39
2023-04-28T02:47:29.958Z,12.33
2023-04-28T02:49:56.291Z,12.31
2023-04-28T02:52:23.022Z,12.43
2023-04-28T02:54:54.259Z,12.36
2023-04-28T02:57:20.726Z,12.40
2023-04-28T02:59:47.193Z,12.45
2023-04-28T03:02:13.679Z,12.41
2023-04-28T03:04:40.080Z,12.31
2023-04-28T03:07:06.657Z,12.33
2023-04-28T03:09:33.234Z,12.38
2023-04-28T03:11:59.724Z,12.38
2023-04-28T03:14:26.082Z,12.39
2023-04-28T03:16:52.545Z,12.38
2023-04-28T03:19:18.854Z,12.36
2023-04-28T03:21:46.091Z,12.35
2023-04-28T03:24:12.464Z,12.26
2023-04-28T03:26:38.861Z,12.23
2023-04-28T03:29:05.243Z,12.16
2023-04-28T03:31:31.778Z,12.03
2023-04-28T03:33:59.551Z,11.96
2023-04-28T03:36:27.395Z,12.01
2023-04-28T03:38:54.579Z,12.06
2023-04-28T03:41:20.945Z,12.07
2023-04-28T03:43:47.257Z,12.06
2023-04-28T03:46:13.700Z,12.10
2023-04-28T03:48:40.072Z,12.13
2023-04-28T03:51:06.421Z,12.17
2023-04-28T03:53:32.834Z,12.14
2023-04-28T03:55:59.224Z,12.13
2023-04-28T03:58:25.666Z,12.15
2023-04-28T04:00:52.212Z,11.96
2023-04-28T04:03:21.658Z,11.81
2023-04-28T04:05:48.464Z,11.78
2023-04-28T04:08:14.952Z,11.65
2023-04-28T04:10:41.272Z,11.60
2023-04-28T04:13:07.806Z,11.67
2023-04-28T04:15:34.303Z,11.70
2023-04-28T04:18:00.876Z,11.62
2023-04-28T04:20:27.369Z,11.49
2023-04-28T04:22:53.761Z,11.48
2023-04-28T04:25:22.044Z,11.58
2023-04-28T04:27:49.558Z,11.43
2023-04-28T04:30:16.088Z,11.45
2023-04-28T04:32:42.614Z,11.54
2023-04-28T04:35:09.559Z,11.57
2023-04-28T04:37:36.048Z,11.57
2023-04-28T04:40:03.104Z,11.58
2023-04-28T04:42:29.771Z,11.65
2023-04-28T04:44:56.241Z,11.59
2023-04-28T04:47:22.689Z,11.62
2023-04-28T04:49:50.059Z,11.62
2023-04-28T04:52:16.761Z,11.64
2023-04-28T04:54:43.119Z,11.67
2023-04-28T04:57:09.555Z,11.67
2023-04-28T04:59:35.971Z,11.67
2023-04-28T05:02:02.381Z,11.64
2023-04-28T05:04:29.092Z,11.66
2023-04-28T05:06:55.567Z,11.73
2023-04-28T05:09:23.065Z,11.73
2023-04-28T05:11:49.363Z,11.79
2023-04-28T05:14:16.849Z,11.75
2023-04-28T05:16:43.760Z,11.72
2023-04-28T05:19:10.660Z,11.70
2023-04-28T05:21:37.038Z,11.76
2023-04-28T05:24:03.549Z,11.75
2023-04-28T05:26:29.888Z,11.77
2023-04-28T05:28:56.231Z,11.75
2023-04-28T05:31:22.765Z,11.83
2023-04-28T05:33:49.177Z,11.88
2023-04-28T05:36:17.117Z,11.95
2023-04-28T05:38:44.220Z,11.93
2023-04-28T05:41:10.756Z,12.01
2023-04-28T05:43:37.275Z,12.04
2023-04-28T05:46:05.118Z,12.09
2023-04-28T05:48:32.681Z,12.04
2023-04-28T05:50:59.569Z,12.11
2023-04-28T05:53:25.891Z,12.08
2023-04-28T05:55:52.485Z,12.06
2023-04-28T05:58:18.927Z,12.02
2023-04-28T06:00:45.326Z,12.05
2023-04-28T06:03:14.417Z,12.04
2023-04-28T06:05:41.189Z,11.96
2023-04-28T06:08:07.836Z,11.93
2023-04-28T06:10:34.231Z,11.96
2023-04-28T06:13:00.552Z,12.06
2023-04-28T06:15:27.069Z,12.10
2023-04-28T06:17:53.969Z,12.15
2023-04-28T06:20:20.568Z,12.15
2023-04-28T06:22:47.101Z,12.19
2023-04-28T06:25:13.505Z,12.28
2023-04-28T06:27:39.827Z,12.24
2023-04-28T06:30:06.851Z,12.20
2023-04-28T06:32:33.692Z,12.24
2023-04-28T06:35:00.069Z,12.27
2023-04-28T06:37:26.902Z,12.39
2023-04-28T06:39:53.241Z,12.36
2023-04-28T06:42:20.409Z,12.33
2023-04-28T06:44:47.606Z,12.38
2023-04-28T06:47:14.077Z,12.43
2023-04-28T06:49:40.446Z,12.49
2023-04-28T06:52:07.924Z,12.47
2023-04-28T06:54:34.250Z,12.54
2023-04-28T06:57:00.652Z,12.55
2023-04-28T06:59:27.238Z,12.54
2023-04-28T07:01:53.629Z,12.50
2023-04-28T07:04:20.300Z,12.62
2023-04-28T07:06:47.377Z,12.69
2023-04-28T07:09:13.898Z,12.70
2023-04-28T07:11:40.350Z,12.74
2023-04-28T07:14:08.237Z,12.75
2023-04-28T07:16:34.740Z,12.80
2023-04-28T07:19:01.216Z,12.76
2023-04-28T07:21:28.204Z,12.83
2023-04-28T07:23:57.820Z,12.88
2023-04-28T07:26:24.406Z,12.97
2023-04-28T07:28:51.828Z,12.93
2023-04-28T07:31:18.379Z,13.01
2023-04-28T07:33:44.750Z,13.01
2023-04-28T07:36:11.215Z,13.00
2023-04-28T07:38:37.757Z,13.02
2023-04-28T07:41:05.206Z,13.05
2023-04-28T07:43:33.330Z,12.98
2023-04-28T07:45:59.843Z,12.89
2023-04-28T07:48:27.243Z,13.01
2023-04-28T07:50:53.754Z,13.01
2023-04-28T07:53:20.134Z,13.13
2023-04-28T07:55:46.902Z,13.07
2023-04-28T07:58:13.416Z,13.18
2023-04-28T08:00:41.033Z,13.24
2023-04-28T08:03:07.932Z,13.34
2023-04-28T08:05:34.617Z,13.48
2023-04-28T08:08:01.145Z,13.57
2023-04-28T08:10:28.470Z,13.68
2023-04-28T08:12:54.978Z,13.76
2023-04-28T08:15:21.476Z,13.83
2023-04-28T08:17:47.905Z,13.82
2023-04-28T08:20:15.633Z,13.73
2023-04-28T08:22:42.146Z,13.92
2023-04-28T08:25:08.830Z,14.16
2023-04-28T08:27:38.012Z,14.27
2023-04-28T08:30:05.217Z,14.40
2023-04-28T08:32:31.723Z,14.40
2023-04-28T08:34:58.470Z,14.48
2023-04-28T08:37:24.914Z,14.39
2023-04-28T08:39:52.740Z,14.32
2023-04-28T08:42:19.412Z,14.25
2023-04-28T08:44:47.030Z,14.20
2023-04-28T08:47:14.334Z,14.33
2023-04-28T08:49:41.499Z,14.42
2023-04-28T08:52:17.561Z,14.46
2023-04-28T08:54:44.420Z,14.57
2023-04-28T08:57:10.940Z,14.65
2023-04-28T08:59:41.623Z,14.62
2023-04-28T09:02:08.984Z,14.63
2023-04-28T09:04:35.703Z,14.62
2023-04-28T09:07:02.276Z,14.56
2023-04-28T09:09:33.269Z,14.59
2023-04-28T09:12:03.757Z,14.66
2023-04-28T09:14:33.706Z,14.72
2023-04-28T09:17:00.850Z,14.76
2023-04-28T09:19:36.048Z,14.91
2023-04-28T09:22:13.695Z,14.94
2023-04-28T09:24:44.523Z,14.94
2023-04-28T09:27:11.895Z,14.95
2023-04-28T09:29:38.987Z,14.95
2023-04-28T09:32:19.271Z,14.94
2023-04-28T09:34:51.218Z,14.87
2023-04-28T09:37:20.788Z,14.73
2023-04-28T09:39:50.669Z,14.64
2023-04-28T09:42:43.083Z,14.65
2023-04-28T09:45:14.271Z,14.53
2023-04-28T09:47:42.904Z,14.47
2023-04-28T09:50:14.446Z,14.43
2023-04-28T09:52:42.578Z,14.40
2023-04-28T09:55:09.436Z,14.25
2023-04-28T09:57:36.826Z,14.28
2023-04-28T10:00:06.477Z,14.37
2023-04-28T10:02:42.799Z,14.42
2023-04-28T10:05:11.019Z,14.41
2023-04-28T10:07:38.945Z,14.37
2023-04-28T10:10:07.091Z,14.37
2023-04-28T10:12:34.926Z,14.45
2023-04-28T10:15:02.115Z,14.44
2023-04-28T10:17:29.769Z,14.44
2023-04-28T10:19:57.141Z,14.48
2023-04-28T10:22:56.007Z,14.58
2023-04-28T10:25:27.822Z,14.50
2023-04-28T10:27:54.641Z,14.43
2023-04-28T10:30:28.267Z,14.50
2023-04-28T10:33:14.097Z,14.62
2023-04-28T10:35:45.869Z,14.70
2023-04-28T10:38:14.719Z,14.77
2023-04-28T10:40:49.070Z,14.77
2023-04-28T10:43:31.149Z,14.85
2023-04-28T10:46:00.072Z,14.83
2023-04-28T10:48:26.426Z,14.83
2023-04-28T10:51:09.659Z,14.87
2023-04-28T10:53:45.384Z,14.79
2023-04-28T10:56:24.915Z,14.90
2023-04-28T10:58:52.187Z,14.94
2023-04-28T11:01:18.763Z,15.02
2023-04-28T11:03:52.041Z,15.15
2023-04-28T11:06:34.390Z,15.36
2023-04-28T11:09:24.140Z,15.50
2023-04-28T11:12:06.715Z,15.57
2023-04-28T11:14:35.299Z,15.60
2023-04-28T11:17:06.562Z,15.59
2023-04-28T11:19:38.244Z,15.69
2023-04-28T11:22:11.712Z,15.79
2023-04-28T11:24:38.329Z,15.87
2023-04-28T11:27:04.796Z,15.97
2023-04-28T11:29:38.841Z,16.03
2023-04-28T11:32:07.705Z,16.11
2023-04-28T11:34:34.944Z,16.24
2023-04-28T11:37:01.495Z,16.39
2023-04-28T11:39:29.852Z,16.63
2023-04-28T11:41:58.105Z,16.84
2023-04-28T11:44:27.410Z,16.95
2023-04-28T11:47:03.337Z,17.17
2023-04-28T11:49:31.604Z,17.26
2023-04-28T11:52:00.341Z,17.24
2023-04-28T11:54:29.152Z,17.31
2023-04-28T11:56:57.296Z,17.21
2023-04-28T11:59:29.245Z,17.26
2023-04-28T12:01:59.294Z,17.34
2023-04-28T12:04:48.588Z,17.38
2023-04-28T12:07:16.500Z,17.43
2023-04-28T12:10:06.669Z,17.50
2023-04-28T12:15:05.316Z,17.75
2023-04-28T12:17:39.842Z,17.94
2023-04-28T12:20:11.705Z,18.10
2023-04-28T12:22:51.037Z,18.20
2023-04-28T12:25:19.417Z,18.22
2023-04-28T12:28:02.153Z,18.10
2023-04-28T12:30:30.841Z,18.20
2023-04-28T12:32:57.591Z,18.26
2023-04-28T12:35:25.531Z,18.31
2023-04-28T12:37:53.700Z,18.37
2023-04-28T12:40:20.108Z,18.55
2023-04-28T12:42:46.705Z,18.58
2023-04-28T12:45:13.235Z,18.78
2023-04-28T12:47:40.629Z,18.90
2023-04-28T12:50:07.780Z,19.05
2023-04-28T12:52:35.704Z,19.18
2023-04-28T12:55:02.980Z,19.35
2023-04-28T12:57:29.538Z,19.40
2023-04-28T12:59:57.110Z,19.38
2023-04-28T13:02:24.140Z,19.55
2023-04-28T13:04:52.069Z,19.71
2023-04-28T13:07:19.173Z,19.84
2023-04-28T13:09:47.322Z,19.91
2023-04-28T13:12:14.625Z,19.81
2023-04-28T13:14:41.149Z,19.78
2023-04-28T13:17:08.163Z,19.88
2023-04-28T13:19:35.112Z,19.72
2023-04-28T13:22:04.983Z,19.82
2023-04-28T13:24:33.430Z,19.76
2023-04-28T13:27:00.249Z,19.64
2023-04-28T13:29:26.576Z,19.57
2023-04-28T13:31:53.117Z,19.57
2023-04-28T13:34:19.556Z,19.47
2023-04-28T13:36:47.952Z,19.31
2023-04-28T13:39:14.927Z,19.07
2023-04-28T13:41:41.620Z,19.01
2023-04-28T13:44:09.373Z,19.20
2023-04-28T13:46:35.974Z,19.60
2023-04-28T13:49:02.433Z,19.91
2023-04-28T13:51:28.877Z,20.15
2023-04-28T13:53:55.345Z,20.26
2023-04-28T13:56:21.866Z,20.50
2023-04-28T13:58:48.315Z,20.90
2023-04-28T14:01:14.970Z,20.96
2023-04-28T14:03:42.053Z,21.05
2023-04-28T14:06:08.500Z,21.31
2023-04-28T14:08:35.024Z,21.48
2023-04-28T14:11:01.601Z,21.59
2023-04-28T14:13:27.974Z,21.66
2023-04-28T14:15:59.283Z,21.56
2023-04-28T14:18:26.371Z,21.59
2023-04-28T14:20:54.503Z,21.71
2023-04-28T14:23:22.582Z,21.85
2023-04-28T14:25:49.174Z,21.70
2023-04-28T14:28:16.190Z,21.17
2023-04-28T14:30:42.881Z,20.92
2023-04-28T14:33:09.336Z,20.77
2023-04-28T14:35:35.800Z,20.64
2023-04-28T14:38:03.479Z,20.62
2023-04-28T14:40:29.824Z,20.63
2023-04-28T14:42:56.450Z,21.20
2023-04-28T14:45:23.133Z,21.68
2023-04-28T14:47:49.729Z,21.99
2023-04-28T14:50:16.763Z,21.87
2023-04-28T14:52:43.134Z,21.78
2023-04-28T14:55:10.171Z,21.63
2023-04-28T14:57:37.729Z,21.30
2023-04-28T15:00:07.071Z,21.29
2023-04-28T15:02:34.346Z,21.35
2023-04-28T15:05:01.408Z,21.44
2023-04-28T15:07:31.215Z,21.67
2023-04-28T15:09:59.348Z,21.70
2023-04-28T15:12:26.017Z,21.43
2023-04-28T15:14:53.705Z,21.46
2023-04-28T15:17:21.284Z,21.59
2023-04-28T15:19:47.782Z,21.62
2023-04-28T15:22:14.229Z,21.55
2023-04-28T15:24:40.659Z,21.31
2023-04-28T15:27:07.054Z,21.24
2023-04-28T15:29:33.461Z,21.19
2023-04-28T15:31:59.961Z,21.09
2023-04-28T15:34:26.456Z,21.19
2023-04-28T15:36:53.764Z,21.22
2023-04-28T15:39:20.228Z,21.13
2023-04-28T15:41:47.108Z,21.03
2023-04-28T15:44:13.689Z,21.08
2023-04-28T15:46:40.312Z,21.15
2023-04-28T15:49:06.737Z,21.05
2023-04-28T15:51:33.289Z,20.93
2023-04-28T15:54:00.287Z,20.80
2023-04-28T15:56:26.732Z,20.69
2023-04-28T15:58:53.347Z,20.57
2023-04-28T16:01:21.004Z,20.29
2023-04-28T16:03:48.439Z,20.27
2023-04-28T16:06:14.972Z,20.25
2023-04-28T16:08:41.275Z,20.29
2023-04-28T16:11:08.242Z,20.34
2023-04-28T16:13:37.030Z,20.26
2023-04-28T16:16:04.136Z,20.26
2023-04-28T16:18:31.937Z,20.20
2023-04-28T16:20:58.246Z,20.04
2023-04-28T16:23:24.606Z,19.99
2023-04-28T16:25:51.566Z,19.85
2023-04-28T16:28:17.987Z,19.54
2023-04-28T16:30:44.535Z,19.39
2023-04-28T16:33:11.238Z,19.43
2023-04-28T16:35:37.693Z,19.25
2023-04-28T16:38:04.027Z,19.22
2023-04-28T16:40:30.706Z,19.10
2023-04-28T16:42:57.339Z,18.93
2023-04-28T16:45:23.752Z,18.69
2023-04-28T16:47:50.218Z,18.54
2023-04-28T16:50:17.273Z,18.32
2023-04-28T16:52:43.714Z,18.19
2023-04-28T16:55:10.931Z,18.16
2023-04-28T16:57:37.495Z,18.12
2023-04-28T17:00:06.099Z,18.09
2023-04-28T17:02:33.388Z,17.93
2023-04-28T17:05:00.259Z,17.81
2023-04-28T17:07:26.759Z,17.80
2023-04-28T17:09:53.503Z,17.76
2023-04-28T17:12:20.970Z,17.71
2023-04-28T17:14:47.646Z,17.63
2023-04-28T17:17:14.113Z,17.66
2023-04-28T17:19:41.589Z,17.70
2023-04-28T17:22:08.272Z,17.64
2023-04-28T17:24:35.084Z,17.60
2023-04-28T17:27:01.719Z,17.59
2023-04-28T17:29:29.070Z,17.55
2023-04-28T17:31:55.668Z,17.48
2023-04-28T17:34:22.157Z,17.33
2023-04-28T17:36:48.627Z,17.26
2023-04-28T17:39:16.580Z,17.28
2023-04-28T17:41:43.693Z,17.25
2023-04-28T17:44:10.063Z,17.21
2023-04-28T17:46:38.434Z,17.21
2023-04-28T17:49:05.445Z,17.24
2023-04-28T17:51:32.334Z,17.27
2023-04-28T17:53:59.305Z,17.31
2023-04-28T17:56:26.383Z,17.34
2023-04-28T17:58:52.874Z,17.35
2023-04-28T18:01:19.587Z,17.27
2023-04-28T18:03:46.457Z,17.22
2023-04-28T18:06:13.721Z,17.08
2023-04-28T18:08:40.911Z,17.05
2023-04-28T18:11:09.111Z,17.10
2023-04-28T18:13:35.668Z,17.05
2023-04-28T18:16:04.396Z,17.00
2023-04-28T18:18:34.780Z,16.95
2023-04-28T18:21:02.228Z,16.95
2023-04-28T18:23:30.205Z,17.00
2023-04-28T18:25:56.983Z,16.94
2023-04-28T18:28:23.575Z,16.98
2023-04-28T18:30:50.279Z,16.95
2023-04-28T18:33:23.116Z,16.83
2023-04-28T18:36:06.191Z,16.79
2023-04-28T18:38:35.085Z,16.78
2023-04-28T18:41:11.117Z,16.83
2023-04-28T18:43:37.770Z,16.83
2023-04-28T18:46:06.200Z,16.82
2023-04-28T18:48:33.992Z,16.74
2023-04-28T18:51:01.599Z,16.74
2023-04-28T18:53:30.617Z,16.72
2023-04-28T18:55:58.092Z,16.70
2023-04-28T18:58:25.125Z,16.69
2023-04-28T19:00:52.490Z,16.66
2023-04-28T19:03:19.106Z,16.69
2023-04-28T19:05:46.197Z,16.74
2023-04-28T19:08:12.994Z,16.69
2023-04-28T19:10:39.449Z,16.70
2023-04-28T19:13:05.820Z,16.63
2023-04-28T19:15:32.978Z,16.62
2023-04-28T19:17:59.577Z,16.57
2023-04-28T19:20:26.090Z,16.52
2023-04-28T19:22:52.675Z,16.49
2023-04-28T19:25:19.197Z,16.53
2023-04-28T19:27:45.657Z,16.54
2023-04-28T19:30:14.831Z,16.49
2023-04-28T19:32:42.376Z,16.48
2023-04-28T19:35:09.467Z,16.46
2023-04-28T19:37:36.249Z,16.52
2023-04-28T19:40:07.277Z,16.56
2023-04-28T19:42:35.022Z,16.49
2023-04-28T19:45:01.944Z,16.38
2023-04-28T19:47:31.451Z,16.30
2023-04-28T19:49:57.872Z,16.37
2023-04-28T19:52:24.308Z,16.44
2023-04-28T19:54:51.767Z,16.50
2023-04-28T19:57:19.196Z,16.54
2023-04-28T19:59:49.506Z,16.58
2023-04-28T20:02:16.795Z,16.59
2023-04-28T20:04:43.464Z,16.61
2023-04-28T20:07:10.727Z,16.59
2023-04-28T20:09:37.980Z,16.59
2023-04-28T20:12:05.955Z,16.54
2023-04-28T20:14:33.031Z,16.53
2023-04-28T20:17:01.032Z,16.53
2023-04-28T20:19:27.743Z,16.52
2023-04-28T20:21:54.426Z,16.52
2023-04-28T20:24:20.920Z,16.54
2023-04-28T20:26:49.306Z,16.55
2023-04-28T20:29:16.038Z,16.48
2023-04-28T20:31:42.647Z,16.40
2023-04-28T20:34:09.034Z,16.38
2023-04-28T20:36:35.438Z,16.39
2023-04-28T20:39:03.052Z,16.43
2023-04-28T20:41:29.441Z,16.45
2023-04-28T20:43:55.775Z,16.39
2023-04-28T20:46:22.522Z,16.39
2023-04-28T20:48:49.223Z,16.43
2023-04-28T20:51:16.714Z,16.38
2023-04-28T20:53:43.284Z,16.37
2023-04-28T20:56:09.702Z,16.37
2023-04-28T20:58:36.132Z,16.31
2023-04-28T21:01:02.626Z,16.28
2023-04-28T21:03:30.505Z,16.25
2023-04-28T21:05:57.024Z,16.09
2023-04-28T21:08:23.517Z,16.09
2023-04-28T21:10:50.000Z,16.03
2023-04-28T21:13:16.407Z,15.93
2023-04-28T21:15:43.033Z,15.96
2023-04-28T21:18:09.571Z,15.88
2023-04-28T21:20:36.053Z,15.84
2023-04-28T21:23:02.823Z,15.90
2023-04-28T21:25:29.287Z,15.89
2023-04-28T21:27:55.734Z,15.90
2023-04-28T21:30:22.561Z,15.93
2023-04-28T21:32:48.984Z,15.90
2023-04-28T21:35:16.245Z,15.84
2023-04-28T21:37:42.743Z,15.84
2023-04-28T21:40:09.724Z,15.78
2023-04-28T21:42:36.190Z,15.77
2023-04-28T21:45:02.709Z,15.67
2023-04-28T21:47:29.718Z,15.70
2023-04-28T21:49:56.129Z,15.62
2023-04-28T21:52:22.597Z,15.59
2023-04-28T21:54:49.026Z,15.48
2023-04-28T21:57:15.780Z,15.40
2023-04-28T21:59:42.402Z,15.31
2023-04-28T22:02:09.064Z,15.31
2023-04-28T22:04:35.973Z,15.25
2023-04-28T22:07:02.655Z,15.26
2023-04-28T22:09:29.079Z,15.15
2023-04-28T22:11:55.495Z,15.07
2023-04-28T22:14:39.364Z,14.99
2023-04-28T22:17:07.442Z,15.00
2023-04-28T22:19:34.128Z,14.98
2023-04-28T22:22:00.621Z,14.95
2023-04-28T22:24:27.742Z,14.87
2023-04-28T22:26:55.043Z,14.82
2023-04-28T22:29:21.880Z,14.87
2023-04-28T22:31:48.476Z,14.83
2023-04-28T22:34:15.057Z,14.86
2023-04-28T22:36:41.480Z,14.85
2023-04-28T22:39:08.196Z,14.79
2023-04-28T22:41:34.665Z,14.78
2023-04-28T22:44:01.003Z,14.78
2023-04-28T22:46:28.639Z,14.82
2023-04-28T22:48:55.240Z,14.80
2023-04-28T22:51:21.913Z,14.82
2023-04-28T22:53:48.553Z,14.78
2023-04-28T22:56:15.855Z,14.65
2023-04-28T22:58:42.383Z,14.68
2023-04-28T23:01:09.035Z,14.66
2023-04-28T23:03:35.629Z,14.69
2023-04-28T23:06:02.108Z,14.67
2023-04-28T23:08:28.463Z,14.68
2023-04-28T23:10:57.028Z,14.70
2023-04-28T23:13:23.445Z,14.71
2023-04-28T23:15:49.873Z,14.69
2023-04-28T23:18:16.336Z,14.60
2023-04-28T23:20:42.678Z,14.52
2023-04-28T23:23:08.975Z,14.47
2023-04-28T23:25:35.883Z,14.48
2023-04-28T23:28:02.246Z,14.47
2023-04-28T23:30:28.625Z,14.41
2023-04-28T23:32:55.163Z,14.41
2023-04-28T23:35:21.605Z,14.31
2023-04-28T23:37:47.927Z,14.29
2023-04-28T23:40:14.531Z,14.23
2023-04-28T23:42:41.128Z,14.15
2023-04-28T23:45:08.939Z,14.07
2023-04-28T23:47:35.627Z,13.99
2023-04-28T23:50:02.086Z,14.00
2023-04-28T23:52:28.439Z,13.98
2023-04-28T23:54:54.920Z,13.89
2023-04-28T23:57:21.318Z,13.87
2023-04-28T23:59:47.977Z,13.84
